Time;durP1;ratioP1;P1;durP2;ratioP2;P2;SDS_P1;SDS_P2;PMS_P1;PMS_P2;Temp;Humidity;BMP_temperature;BMP_pressure;BME280_temperature;BME280_humidity;BME280_pressure;Samples;Min_cycle;Max_cycle;Signal;HPM_P1;HPM_P2
2023/07/15 00:04:20;;;;;;;5.15;2.60;;;;;;;18.61;100.00;100493.75;10434103;28;20069;-67
2023/07/15 00:09:26;;;;;;;4.50;3.00;;;;;;;18.56;100.00;100491.88;10411350;28;20033;-67
2023/07/15 00:14:28;;;;;;;4.35;3.10;;;;;;;18.50;100.00;100476.44;10398655;28;20045;-67
2023/07/15 00:19:29;;;;;;;6.88;3.97;;;;;;;18.49;100.00;100485.94;10380427;28;20033;-66
2023/07/15 00:24:30;;;;;;;4.15;2.90;;;;;;;18.45;100.00;100468.22;10412487;28;20060;-67
2023/07/15 00:29:30;;;;;;;6.70;2.83;;;;;;;18.38;100.00;100451.13;10394698;28;20037;-66
2023/07/15 00:34:31;;;;;;;7.28;3.03;;;;;;;18.28;100.00;100452.19;10394853;28;20551;-66
2023/07/15 00:39:31;;;;;;;7.82;3.53;;;;;;;18.15;100.00;100438.00;10434964;28;20155;-66
2023/07/15 00:44:32;;;;;;;4.93;2.92;;;;;;;18.12;100.00;100435.84;10397962;28;20037;-67
2023/07/15 00:49:33;;;;;;;5.93;3.35;;;;;;;18.03;100.00;100426.59;10393742;28;20398;-67
2023/07/15 00:54:39;;;;;;;6.97;3.80;;;;;;;18.00;100.00;100418.84;10411390;28;20277;-67
2023/07/15 00:59:40;;;;;;;4.45;2.97;;;;;;;18.09;100.00;100405.03;10400026;28;20432;-66
2023/07/15 01:04:40;;;;;;;4.05;2.58;;;;;;;18.08;100.00;100393.03;10413807;28;20053;-66
2023/07/15 01:09:41;;;;;;;8.90;3.30;;;;;;;18.16;100.00;100388.66;10411746;28;20041;-66
2023/07/15 01:14:44;;;;;;;5.53;2.60;;;;;;;18.21;100.00;100380.19;10395039;28;20041;-67
2023/07/15 01:19:44;;;;;;;6.53;3.78;;;;;;;18.26;100.00;100373.66;10411368;28;20034;-67
2023/07/15 01:24:45;;;;;;;6.75;3.22;;;;;;;18.26;100.00;100360.53;10394638;28;20060;-67
2023/07/15 01:29:46;;;;;;;7.63;3.17;;;;;;;18.21;100.00;100346.75;10377172;28;20413;-67
2023/07/15 01:34:47;;;;;;;6.50;2.75;;;;;;;18.29;100.00;100357.13;10394632;28;20044;-67
2023/07/15 01:39:49;;;;;;;6.00;2.22;;;;;;;18.31;100.00;100354.84;10410155;28;20048;-65
2023/07/15 01:44:49;;;;;;;4.95;2.67;;;;;;;18.32;100.00;100350.91;10411067;28;20041;-67
2023/07/15 01:49:50;;;;;;;4.40;2.80;;;;;;;18.31;100.00;100345.66;10410653;28;20041;-67
2023/07/15 01:54:50;;;;;;;3.50;2.20;;;;;;;18.40;100.00;100351.25;10393199;28;20042;-66
2023/07/15 01:59:57;;;;;;;4.53;2.33;;;;;;;18.44;100.00;100349.47;10421551;28;20540;-67
2023/07/15 02:04:57;;;;;;;3.75;2.63;;;;;;;18.45;100.00;100334.41;10427365;28;20037;-66
2023/07/15 02:09:58;;;;;;;4.10;2.13;;;;;;;18.51;100.00;100335.94;10410512;28;20398;-66
2023/07/15 02:14:58;;;;;;;4.65;2.00;;;;;;;18.49;100.00;100327.88;10443118;28;20409;-67
2023/07/15 02:19:59;;;;;;;6.95;2.92;;;;;;;18.52;100.00;100315.25;10407473;28;20473;-67
2023/07/15 02:25:00;;;;;;;3.63;2.42;;;;;;;18.53;100.00;100323.31;10408579;28;20033;-66
2023/07/15 02:30:01;;;;;;;4.50;1.83;;;;;;;18.54;100.00;100316.59;10407683;28;20042;-67
2023/07/15 02:35:02;;;;;;;4.47;2.20;;;;;;;18.47;100.00;100305.06;10401041;28;20563;-67
2023/07/15 02:40:04;;;;;;;3.83;1.80;;;;;;;18.49;100.00;100327.88;10400753;28;20038;-67
2023/07/15 02:45:07;;;;;;;3.30;1.88;;;;;;;18.33;100.00;100307.97;10417325;28;20040;-66
2023/07/15 02:50:08;;;;;;;6.18;2.53;;;;;;;18.14;100.00;100308.19;10400039;28;20455;-66
2023/07/15 02:55:08;;;;;;;5.75;2.05;;;;;;;17.91;100.00;100279.56;10399856;28;20040;-66
2023/07/15 03:00:13;;;;;;;8.40;2.25;;;;;;;17.90;100.00;100286.28;10424928;28;20492;-66
2023/07/15 03:05:14;;;;;;;3.00;2.03;;;;;;;17.88;100.00;100271.00;10458822;28;20032;-66
2023/07/15 03:10:18;;;;;;;3.10;2.05;;;;;;;17.93;100.00;100274.50;10423446;28;20029;-66
2023/07/15 03:15:19;;;;;;;3.42;2.03;;;;;;;18.00;100.00;100276.00;10458764;28;20495;-67
2023/07/15 03:20:20;;;;;;;6.43;2.03;;;;;;;18.07;100.00;100277.19;10412476;28;20081;-67
2023/07/15 03:25:21;;;;;;;4.45;1.92;;;;;;;18.02;100.00;100279.28;10414395;28;20029;-66
2023/07/15 03:30:21;;;;;;;4.88;1.63;;;;;;;17.80;100.00;100258.66;10381957;28;20042;-66
2023/07/15 03:35:22;;;;;;;4.38;2.13;;;;;;;17.88;100.00;100291.34;10415078;28;20033;-66
2023/07/15 03:40:22;;;;;;;4.45;1.85;;;;;;;17.78;100.00;100282.38;10397957;28;20114;-67
2023/07/15 03:45:23;;;;;;;3.63;2.13;;;;;;;17.80;100.00;100297.66;10397423;28;20037;-66
2023/07/15 03:50:24;;;;;;;5.90;2.60;;;;;;;17.80;100.00;100286.50;10432438;28;20489;-67
2023/07/15 03:55:24;;;;;;;3.33;1.70;;;;;;;17.84;100.00;100292.28;10405056;28;20393;-67
2023/07/15 04:00:25;;;;;;;5.45;2.38;;;;;;;17.81;100.00;100299.28;10406093;28;20041;-66
2023/07/15 04:05:25;;;;;;;4.25;2.72;;;;;;;17.74;100.00;100287.78;10439118;28;20056;-67
2023/07/15 04:10:26;;;;;;;2.95;1.92;;;;;;;17.81;100.00;100299.28;10437982;28;20033;-66
2023/07/15 04:15:27;;;;;;;4.65;2.00;;;;;;;17.65;100.00;100290.50;10399227;28;20038;-67
2023/07/15 04:20:27;;;;;;;3.85;2.25;;;;;;;17.57;100.00;100291.25;10440434;28;20033;-67
2023/07/15 04:25:27;;;;;;;4.40;2.22;;;;;;;17.61;100.00;100330.41;10436593;28;20037;-67
2023/07/15 04:30:28;;;;;;;3.80;1.95;;;;;;;17.59;100.00;100318.75;10420532;28;20043;-66
2023/07/15 04:35:29;;;;;;;4.10;1.83;;;;;;;17.59;100.00;100314.03;10437272;28;20057;-66
2023/07/15 04:40:29;;;;;;;5.93;2.10;;;;;;;17.59;100.00;100318.75;10454915;28;20047;-67
2023/07/15 04:45:31;;;;;;;3.60;2.40;;;;;;;17.53;100.00;100310.53;10417653;28;20033;-67
2023/07/15 04:50:32;;;;;;;5.45;2.03;;;;;;;17.60;100.00;100317.63;10403404;28;20044;-67
2023/07/15 04:55:33;;;;;;;6.90;1.75;;;;;;;17.67;100.00;100329.13;10419461;28;20029;-66
2023/07/15 05:00:33;;;;;;;7.82;2.15;;;;;;;17.77;100.00;100330.84;10433532;28;20049;-67
2023/07/15 05:05:35;;;;;;;5.25;2.13;;;;;;;18.02;100.00;100327.44;10395734;28;20038;-66
2023/07/15 05:10:36;;;;;;;2.70;1.88;;;;;;;18.25;100.00;100328.28;10412109;28;20030;-67
2023/07/15 05:15:36;;;;;;;3.40;2.05;;;;;;;18.38;100.00;100334.06;10394795;28;20033;-66
2023/07/15 05:20:37;;;;;;;5.15;1.75;;;;;;;18.59;100.00;100340.72;10377705;28;20042;-67
2023/07/15 05:25:38;;;;;;;5.05;2.15;;;;;;;18.72;100.00;100345.34;10361237;28;20040;-67
2023/07/15 05:30:38;;;;;;;5.25;1.70;;;;;;;18.82;100.00;100343.47;10412386;28;20476;-67
2023/07/15 05:35:39;;;;;;;4.80;2.25;;;;;;;18.95;100.00;100353.66;10368103;28;20417;-67
2023/07/15 05:40:43;;;;;;;6.65;1.67;;;;;;;19.16;100.00;100342.72;10386789;28;20065;-67
2023/07/15 05:45:43;;;;;;;22.95;2.45;;;;;;;19.35;100.00;100350.81;10421294;28;20099;-67
2023/07/15 05:50:44;;;;;;;3.83;1.95;;;;;;;19.51;100.00;100353.94;10378004;28;20486;-67
2023/07/15 05:55:44;;;;;;;3.17;2.13;;;;;;;19.67;100.00;100354.28;10377183;28;20030;-67
2023/07/15 06:00:45;;;;;;;2.58;1.77;;;;;;;19.94;100.00;100361.53;10378436;28;20041;-67
2023/07/15 06:05:45;;;;;;;2.50;1.77;;;;;;;20.27;100.00;100349.81;10362148;28;20030;-67
2023/07/15 06:10:46;;;;;;;3.30;1.55;;;;;;;20.60;100.00;100352.03;10362342;28;20099;-67
2023/07/15 06:15:50;;;;;;;4.90;1.65;;;;;;;20.89;100.00;100352.06;10370654;28;20061;-67
2023/07/15 06:20:50;;;;;;;4.07;1.98;;;;;;;21.17;100.00;100352.41;10360083;28;20046;-67
2023/07/15 06:25:51;;;;;;;4.93;1.92;;;;;;;21.47;100.00;100343.19;10376632;28;20045;-67
2023/07/15 06:31:06;;;;;;;2.67;1.80;;;;;;;21.62;100.00;100352.94;10377763;28;20038;-68
2023/07/15 06:36:07;;;;;;;5.13;1.75;;;;;;;21.77;100.00;100346.75;10335443;28;20046;-67
2023/07/15 06:41:07;;;;;;;5.20;1.50;;;;;;;21.99;100.00;100358.72;10336197;28;20034;-68
2023/07/15 06:46:08;;;;;;;4.63;2.22;;;;;;;22.12;100.00;100346.41;10320120;28;20041;-67
2023/07/15 06:51:10;;;;;;;5.70;1.55;;;;;;;22.18;100.00;100333.81;10338611;28;20030;-68
2023/07/15 06:56:10;;;;;;;6.18;2.00;;;;;;;22.41;100.00;100350.22;10347877;28;20110;-68
2023/07/15 07:01:11;;;;;;;3.00;1.60;;;;;;;22.56;100.00;100347.59;10358403;28;20033;-68
2023/07/15 07:06:11;;;;;;;6.10;1.73;;;;;;;22.68;100.00;100341.16;10349871;28;20051;-66
2023/07/15 07:11:12;;;;;;;5.05;1.27;;;;;;;22.87;100.00;100349.00;10336656;28;20038;-68
2023/07/15 07:16:13;;;;;;;2.53;1.40;;;;;;;22.92;100.00;100343.19;10335751;28;20623;-68
2023/07/15 07:21:13;;;;;;;4.45;1.70;;;;;;;23.21;100.00;100357.34;10329959;28;20493;-67
2023/07/15 07:26:14;;;;;;;3.60;1.70;;;;;;;23.42;100.00;100349.59;10350078;28;20042;-68
2023/07/15 07:31:17;;;;;;;5.30;1.75;;;;;;;23.67;100.00;100355.13;10369923;28;20038;-68
2023/07/15 07:36:17;;;;;;;3.78;1.30;;;;;;;23.77;100.00;100340.59;10341307;28;20037;-67
2023/07/15 07:41:18;;;;;;;2.50;1.17;;;;;;;23.81;100.00;100330.28;10337812;28;20121;-69
2023/07/15 07:46:18;;;;;;;2.80;1.33;;;;;;;23.96;100.00;100349.22;10312668;28;20073;-68
2023/07/15 07:51:19;;;;;;;2.58;1.55;;;;;;;23.94;100.00;100367.63;10333362;28;20034;-68
2023/07/15 07:56:19;;;;;;;7.50;2.20;;;;;;;24.13;100.00;100362.13;10327419;28;20038;-68
2023/07/15 08:01:21;;;;;;;3.47;1.00;;;;;;;24.32;100.00;100366.25;10297306;28;20042;-67
2023/07/15 08:06:22;;;;;;;2.92;1.02;;;;;;;24.45;100.00;100378.25;10283603;28;20035;-68
2023/07/15 08:11:22;;;;;;;3.05;1.38;;;;;;;24.59;100.00;100375.03;10299196;28;20069;-67
2023/07/15 08:16:38;;;;;;;2.17;1.23;;;;;;;24.64;100.00;100360.69;10298670;28;20030;-69
2023/07/15 08:21:39;;;;;;;2.20;0.90;;;;;;;25.01;100.00;100380.94;10314834;28;20105;-68
2023/07/15 08:26:39;;;;;;;2.15;1.08;;;;;;;25.20;100.00;100385.00;10314131;28;20035;-68
2023/07/15 08:31:40;;;;;;;2.78;1.15;;;;;;;25.51;100.00;100387.78;10369851;28;20061;-68
2023/07/15 08:36:40;;;;;;;5.68;1.15;;;;;;;25.65;100.00;100392.09;10362252;28;20490;-69
2023/07/15 08:41:41;;;;;;;4.07;1.50;;;;;;;25.08;100.00;100398.03;10361422;28;20120;-69
2023/07/15 08:46:42;;;;;;;2.25;1.42;;;;;;;24.98;100.00;100393.75;10376914;28;20045;-69
2023/07/15 08:51:44;;;;;;;2.83;1.20;;;;;;;25.23;100.00;100387.13;10377557;28;20034;-69
2023/07/15 08:56:45;;;;;;;2.58;1.50;;;;;;;25.49;100.00;100393.00;10358512;28;20049;-69
2023/07/15 09:01:45;;;;;;;3.92;2.15;;;;;;;25.72;100.00;100386.66;10378305;28;20038;-68
2023/07/15 09:06:47;;;;;;;4.50;1.27;;;;;;;26.10;100.00;100390.69;10412736;28;20033;-69
2023/07/15 09:11:49;;;;;;;2.25;1.20;;;;;;;26.48;100.00;100384.19;10400567;28;20063;-68
2023/07/15 09:16:52;;;;;;;7.20;1.33;;;;;;;26.50;100.00;100366.84;10401698;28;20044;-69
2023/07/15 09:21:53;;;;;;;2.78;1.17;;;;;;;26.70;100.00;100396.69;10402023;28;20128;-68
2023/07/15 09:26:54;;;;;;;3.20;1.10;;;;;;;26.83;100.00;100390.88;10375496;28;20049;-68
2023/07/15 09:31:55;;;;;;;1.67;1.10;;;;;;;26.21;100.00;100400.19;10360950;28;20042;-70
2023/07/15 09:36:55;;;;;;;4.18;1.50;;;;;;;26.02;100.00;100394.53;10360751;28;20044;-68
2023/07/15 09:42:03;;;;;;;2.72;1.05;;;;;;;26.24;100.00;100390.97;10359694;28;20038;-69
2023/07/15 09:47:03;;;;;;;1.55;0.90;;;;;;;25.89;100.00;100407.94;10393244;28;20037;-69
2023/07/15 09:52:05;;;;;;;2.17;0.95;;;;;;;25.66;100.00;100417.13;10385093;28;20037;-68
2023/07/15 09:57:13;;;;;;;2.83;1.17;;;;;;;25.81;100.00;100426.72;10388876;28;20042;-68
2023/07/15 10:02:34;;;;;;;2.70;1.38;;;;;;;26.21;100.00;100421.94;10376781;28;20508;-69
2023/07/15 10:07:35;;;;;;;2.00;1.30;;;;;;;26.49;100.00;100418.88;10419084;28;20041;-68
2023/07/15 10:12:36;;;;;;;2.15;1.27;;;;;;;26.96;100.00;100417.72;10398691;28;20037;-68
2023/07/15 10:17:36;;;;;;;3.40;1.67;;;;;;;26.84;100.00;100413.09;10416871;28;20033;-68
2023/07/15 10:22:37;;;;;;;2.53;1.13;;;;;;;27.37;100.00;100412.38;10390198;28;20067;-69
2023/07/15 10:27:38;;;;;;;3.67;1.42;;;;;;;26.76;100.00;100411.31;10367503;28;20041;-69
2023/07/15 10:32:38;;;;;;;2.00;0.80;;;;;;;27.00;100.00;100400.81;10367231;28;20078;-68
2023/07/15 10:37:39;;;;;;;5.28;1.05;;;;;;;27.07;100.00;100426.38;10417040;28;20046;-68
2023/07/15 10:42:39;;;;;;;1.73;1.20;;;;;;;27.61;100.00;100421.59;10382112;28;20053;-69
2023/07/15 10:47:46;;;;;;;2.63;1.23;;;;;;;27.50;100.00;100410.94;10383322;28;20215;-68
2023/07/15 10:52:51;;;;;;;3.55;1.02;;;;;;;27.61;100.00;100413.13;10366771;28;20193;-68
2023/07/15 10:57:51;;;;;;;2.40;1.02;;;;;;;28.02;100.00;100416.94;10420240;28;20049;-69
2023/07/15 11:02:52;;;;;;;2.00;1.17;;;;;;;28.08;100.00;100409.75;10396142;28;20049;-68
2023/07/15 11:07:53;;;;;;;2.33;1.10;;;;;;;27.69;100.00;100401.53;10422734;28;20048;-69
2023/07/15 11:12:53;;;;;;;4.70;1.17;;;;;;;28.27;100.00;100405.91;10439146;28;20029;-68
2023/07/15 11:17:54;;;;;;;2.28;1.00;;;;;;;29.30;100.00;100425.19;10389960;28;20060;-69
2023/07/15 11:22:54;;;;;;;2.38;1.10;;;;;;;29.64;97.04;100382.44;10406160;28;20116;-68
2023/07/15 11:27:59;;;;;;;1.23;0.90;;;;;;;29.14;99.50;100393.47;10406728;28;20045;-68
2023/07/15 11:32:59;;;;;;;1.95;0.90;;;;;;;28.35;100.00;100399.16;10403900;28;20068;-69
2023/07/15 11:38:13;;;;;;;4.28;1.00;;;;;;;27.86;100.00;100414.31;10388540;28;20056;-68
2023/07/15 11:43:15;;;;;;;5.63;1.10;;;;;;;27.57;100.00;100396.09;10421927;28;20734;-68
2023/07/15 11:48:20;;;;;;;3.60;1.45;;;;;;;27.13;100.00;100390.97;10397740;28;20033;-68
2023/07/15 11:53:31;;;;;;;2.23;1.13;;;;;;;27.20;100.00;100412.88;10434375;28;20096;-67
2023/07/15 11:59:01;;;;;;;2.88;1.23;;;;;;;26.93;100.00;100405.16;10389734;28;20600;-69
2023/07/15 12:04:01;;;;;;;1.67;1.00;;;;;;;26.54;100.00;100395.97;10399272;28;20079;-68
2023/07/15 12:09:07;;;;;;;2.67;1.25;;;;;;;26.10;100.00;100396.31;10436633;28;20041;-68
2023/07/15 12:14:08;;;;;;;4.30;0.90;;;;;;;25.87;100.00;100397.03;10382769;28;20148;-68
2023/07/15 12:19:13;;;;;;;1.67;0.88;;;;;;;25.68;100.00;100394.22;10418985;28;20132;-68
2023/07/15 12:24:14;;;;;;;2.70;1.70;;;;;;;25.66;100.00;100382.47;10418635;28;20064;-68
2023/07/15 12:29:14;;;;;;;3.65;1.40;;;;;;;25.54;100.00;100403.16;10434906;28;20056;-68
2023/07/15 12:34:15;;;;;;;3.30;1.00;;;;;;;26.05;100.00;100394.63;10402197;28;20041;-68
2023/07/15 12:39:16;;;;;;;1.88;1.30;;;;;;;26.51;100.00;100380.59;10403566;28;20043;-68
2023/07/15 12:44:16;;;;;;;4.63;1.20;;;;;;;27.44;100.00;100366.44;10436068;28;20064;-68
2023/07/15 12:49:17;;;;;;;3.90;1.35;;;;;;;28.25;100.00;100360.22;10403229;28;20044;-68
2023/07/15 12:54:17;;;;;;;2.65;1.13;;;;;;;28.02;100.00;100336.91;10402970;28;20029;-68
2023/07/15 12:59:18;;;;;;;2.42;1.25;;;;;;;27.52;100.00;100340.72;10386821;28;20045;-68
2023/07/15 13:04:18;;;;;;;2.30;1.30;;;;;;;27.28;100.00;100341.97;10433941;28;20040;-68
2023/07/15 13:09:19;;;;;;;2.95;1.02;;;;;;;26.38;97.47;100331.19;10414529;28;20041;-68
2023/07/15 13:14:20;;;;;;;3.35;1.05;;;;;;;26.42;97.51;100322.75;10398144;28;20090;-68
2023/07/15 13:19:20;;;;;;;1.23;0.88;;;;;;;27.83;97.12;100316.06;10376563;28;20045;-69
2023/07/15 13:24:24;;;;;;;1.55;1.02;;;;;;;28.61;92.39;100312.47;10393722;28;20052;-70
2023/07/15 13:29:25;;;;;;;3.10;1.38;;;;;;;29.39;93.15;100311.41;10377182;28;20086;-68
2023/07/15 13:34:25;;;;;;;2.75;1.10;;;;;;;29.87;87.28;100293.41;10403667;28;20068;-68
2023/07/15 13:39:36;;;;;;;1.50;1.00;;;;;;;30.21;85.49;100282.53;10415328;28;20040;-69
2023/07/15 13:44:37;;;;;;;1.25;0.90;;;;;;;30.50;83.37;100276.94;10395498;28;20041;-68
2023/07/15 13:49:37;;;;;;;2.08;1.20;;;;;;;30.73;83.17;100283.00;10413249;28;20497;-69
2023/07/15 13:54:38;;;;;;;1.80;1.15;;;;;;;30.55;83.54;100285.03;10402116;28;20554;-69
2023/07/15 13:59:38;;;;;;;2.00;0.88;;;;;;;30.15;85.13;100287.00;10423204;28;20190;-69
2023/07/15 14:04:39;;;;;;;4.90;1.05;;;;;;;30.62;81.93;100276.53;10423822;28;20048;-71
2023/07/15 14:09:39;;;;;;;2.25;1.00;;;;;;;30.41;81.54;100270.81;10437955;28;20132;-70
2023/07/15 14:14:40;;;;;;;1.63;0.77;;;;;;;29.91;75.64;100269.53;10421947;28;20120;-70
2023/07/15 14:19:40;;;;;;;1.55;0.85;;;;;;;30.63;74.66;100260.28;10389778;28;20041;-71
2023/07/15 14:24:41;;;;;;;7.57;1.88;;;;;;;31.05;74.02;100258.63;10455760;28;20048;-68
2023/07/15 14:29:42;;;;;;;7.38;1.42;;;;;;;30.75;74.94;100274.06;10389911;28;20041;-68
2023/07/15 14:34:42;;;;;;;2.55;1.33;;;;;;;31.59;77.15;100276.34;10433187;28;20045;-69
2023/07/15 14:39:43;;;;;;;1.38;1.20;;;;;;;31.25;75.74;100256.13;10404387;28;20044;-69
2023/07/15 14:44:43;;;;;;;2.63;1.40;;;;;;;31.22;77.56;100269.16;10434167;28;20129;-68
2023/07/15 14:49:44;;;;;;;2.90;1.17;;;;;;;30.98;77.99;100265.94;10422297;28;20029;-68
2023/07/15 14:54:44;;;;;;;4.20;1.58;;;;;;;31.50;75.77;100251.22;10405898;28;20414;-67
2023/07/15 14:59:45;;;;;;;3.42;1.30;;;;;;;31.52;73.98;100230.84;10406703;28;20043;-68
2023/07/15 15:04:45;;;;;;;4.28;1.40;;;;;;;31.61;70.50;100204.78;10439908;28;20063;-68
2023/07/15 15:09:46;;;;;;;2.47;1.50;;;;;;;32.74;71.61;100228.00;10414550;28;20041;-68
2023/07/15 15:14:46;;;;;;;2.38;1.52;;;;;;;32.97;70.11;100180.91;10393551;28;20044;-70
2023/07/15 15:19:47;;;;;;;2.17;1.27;;;;;;;33.02;71.73;100188.19;10438740;28;20029;-69
2023/07/15 15:24:47;;;;;;;4.35;1.63;;;;;;;31.79;71.46;100196.97;10421892;28;20060;-69
2023/07/15 15:29:48;;;;;;;2.08;1.48;;;;;;;31.75;71.25;100191.31;10404957;28;20045;-70
2023/07/15 15:34:48;;;;;;;1.70;1.15;;;;;;;32.01;71.46;100196.84;10456637;28;20033;-70
2023/07/15 15:39:49;;;;;;;1.90;1.30;;;;;;;32.51;71.20;100199.28;10421899;28;20044;-69
2023/07/15 15:44:49;;;;;;;2.55;1.20;;;;;;;33.44;70.50;100188.91;10439057;28;20115;-70
2023/07/15 15:49:50;;;;;;;3.45;1.45;;;;;;;33.59;70.96;100190.31;10409913;28;20041;-69
2023/07/15 15:54:50;;;;;;;2.20;1.10;;;;;;;33.62;70.56;100180.13;10400469;28;20069;-70
2023/07/15 15:59:51;;;;;;;2.83;1.63;;;;;;;32.27;69.96;100162.06;10396747;28;20057;-70
2023/07/15 16:04:54;;;;;;;2.25;1.25;;;;;;;31.93;71.87;100168.41;10380957;28;20033;-70
2023/07/15 16:09:55;;;;;;;3.38;1.50;;;;;;;32.28;72.09;100166.53;10396805;28;20041;-70
2023/07/15 16:14:55;;;;;;;2.22;1.00;;;;;;;31.21;71.09;100158.66;10414480;28;20096;-70
2023/07/15 16:19:55;;;;;;;3.45;1.13;;;;;;;31.29;72.82;100146.81;10397493;28;20030;-69
2023/07/15 16:24:56;;;;;;;2.08;1.10;;;;;;;31.28;71.16;100133.03;10413547;28;20091;-70
2023/07/15 16:29:56;;;;;;;4.07;1.23;;;;;;;31.13;72.17;100175.75;10419178;28;20037;-68
2023/07/15 16:34:57;;;;;;;2.20;1.33;;;;;;;30.59;73.99;100149.50;10437398;28;20094;-70
2023/07/15 16:39:57;;;;;;;3.45;1.17;;;;;;;30.72;72.73;100132.84;10453578;28;20056;-69
2023/07/15 16:44:58;;;;;;;3.85;1.08;;;;;;;30.49;75.72;100187.25;10407595;28;20052;-70
2023/07/15 16:49:58;;;;;;;4.13;0.93;;;;;;;29.35;83.71;100183.00;10453303;28;20029;-70
2023/07/15 16:54:59;;;;;;;3.65;0.88;;;;;;;27.90;91.58;100182.41;10418955;28;20029;-70
2023/07/15 16:59:59;;;;;;;3.13;1.50;;;;;;;26.76;98.78;100165.66;10434884;28;20052;-70
2023/07/15 17:05:00;;;;;;;2.90;1.88;;;;;;;26.08;100.00;100195.59;10396009;28;20039;-71
2023/07/15 17:10:00;;;;;;;4.85;1.85;;;;;;;25.61;100.00;100199.53;10418719;28;20053;-69
2023/07/15 17:15:01;;;;;;;4.72;2.05;;;;;;;25.03;100.00;100251.03;10402714;28;20059;-69
2023/07/15 17:20:03;;;;;;;3.83;2.15;;;;;;;24.77;100.00;100275.78;10415028;28;20040;-70
2023/07/15 17:25:04;;;;;;;8.98;2.60;;;;;;;23.02;100.00;100384.00;10451422;28;20033;-71
2023/07/15 17:30:05;;;;;;;6.55;1.88;;;;;;;20.51;100.00;100399.59;10451816;28;20029;-70
2023/07/15 17:35:06;;;;;;;4.70;2.38;;;;;;;19.63;100.00;100425.91;10353915;28;20033;-74
2023/07/15 17:40:07;;;;;;;8.30;2.40;;;;;;;19.26;100.00;100436.47;10371994;28;20046;-75
2023/07/15 17:45:08;;;;;;;6.97;2.20;;;;;;;19.17;100.00;100435.66;10371819;28;20034;-75
2023/07/15 17:50:09;;;;;;;4.63;2.67;;;;;;;18.99;100.00;100443.94;10369852;28;20034;-74
2023/07/15 17:55:09;;;;;;;8.00;2.58;;;;;;;18.92;100.00;100461.13;10367823;28;20046;-74
2023/07/15 18:00:10;;;;;;;7.25;2.80;;;;;;;19.01;100.00;100457.56;10371443;28;20042;-73
2023/07/15 18:05:11;;;;;;;6.75;2.63;;;;;;;18.94;100.00;100452.47;10368676;28;20038;-73
2023/07/15 18:10:12;;;;;;;11.52;3.58;;;;;;;19.07;100.00;100456.28;10370993;28;20041;-76
2023/07/15 18:15:14;;;;;;;8.77;2.10;;;;;;;18.78;100.00;100442.81;10369856;28;20101;-73
2023/07/15 18:20:15;;;;;;;4.80;1.90;;;;;;;18.80;100.00;100441.38;10353296;28;20048;-73
2023/07/15 18:25:15;;;;;;;7.63;2.40;;;;;;;18.68;100.00;100441.94;10385322;28;20048;-73
2023/07/15 18:30:16;;;;;;;10.27;2.85;;;;;;;18.69;100.00;100429.66;10370209;28;20038;-72
2023/07/15 18:35:16;;;;;;;10.63;3.17;;;;;;;18.62;100.00;100420.09;10396211;28;20038;-72
2023/07/15 18:40:17;;;;;;;6.60;2.22;;;;;;;18.54;100.00;100413.31;10381720;28;20108;-73
2023/07/15 18:45:18;;;;;;;4.15;1.65;;;;;;;18.48;100.00;100415.44;10377973;28;20059;-72
2023/07/15 18:50:18;;;;;;;5.07;2.58;;;;;;;18.55;100.00;100423.34;10377820;28;20030;-72
2023/07/15 18:55:20;;;;;;;6.40;1.85;;;;;;;18.65;100.00;100428.66;10426314;28;20044;-73
2023/07/15 19:00:21;;;;;;;4.10;2.00;;;;;;;18.71;100.00;100424.59;10429306;28;20090;-74
2023/07/15 19:05:22;;;;;;;2.95;1.40;;;;;;;18.56;100.00;100422.19;10422126;28;20037;-72
2023/07/15 19:10:22;;;;;;;5.35;1.95;;;;;;;18.42;100.00;100418.66;10419252;28;20037;-73
2023/07/15 19:15:23;;;;;;;2.60;1.55;;;;;;;18.50;100.00;100459.69;10423764;28;20029;-73
2023/07/15 19:20:23;;;;;;;2.63;1.33;;;;;;;18.46;100.00;100461.47;10412850;28;20350;-74
2023/07/15 19:25:24;;;;;;;4.47;1.73;;;;;;;18.47;100.00;100461.16;10455343;28;20071;-72
2023/07/15 19:30:24;;;;;;;6.10;1.50;;;;;;;18.44;100.00;100486.91;10437591;28;20404;-73
2023/07/15 19:35:25;;;;;;;8.13;2.05;;;;;;;18.37;100.00;100491.25;10428675;28;20052;-70
2023/07/15 19:40:26;;;;;;;3.55;1.85;;;;;;;18.40;100.00;100507.34;10395589;28;20033;-70
2023/07/15 19:45:26;;;;;;;3.83;1.65;;;;;;;18.32;100.00;100515.31;10402897;28;20034;-72
2023/07/15 19:50:27;;;;;;;4.28;1.73;;;;;;;18.31;100.00;100529.56;10385688;28;20052;-72
2023/07/15 19:55:27;;;;;;;3.53;1.90;;;;;;;18.30;100.00;100537.13;10399148;28;20041;-72
2023/07/15 20:00:29;;;;;;;4.57;1.67;;;;;;;18.20;100.00;100540.13;10395598;28;20076;-73
2023/07/15 20:05:29;;;;;;;4.43;1.58;;;;;;;18.18;100.00;100531.28;10383170;28;20103;-72
2023/07/15 20:10:30;;;;;;;3.60;1.27;;;;;;;18.07;100.00;100507.59;10340444;28;20134;-71
2023/07/15 20:15:34;;;;;;;3.85;1.73;;;;;;;18.08;100.00;100523.13;10404034;28;20037;-72
2023/07/15 20:20:35;;;;;;;6.10;2.28;;;;;;;18.00;100.00;100519.13;10393909;28;20482;-73
2023/07/15 20:25:36;;;;;;;2.42;1.75;;;;;;;17.99;100.00;100533.38;10438623;28;20068;-72
2023/07/15 20:30:36;;;;;;;5.57;1.92;;;;;;;17.96;100.00;100529.25;10407391;28;20500;-72
2023/07/15 20:35:37;;;;;;;5.32;1.70;;;;;;;17.85;100.00;100517.50;10362787;28;20045;-71
2023/07/15 20:40:39;;;;;;;5.07;2.30;;;;;;;17.88;100.00;100533.63;10354001;28;20082;-73
2023/07/15 20:45:40;;;;;;;2.60;1.67;;;;;;;17.88;100.00;100539.19;10369218;28;20038;-72
2023/07/15 20:50:40;;;;;;;2.33;1.60;;;;;;;17.85;100.00;100553.72;10370195;28;20045;-72
2023/07/15 20:55:41;;;;;;;7.32;2.10;;;;;;;17.85;100.00;100553.72;10358407;28;20038;-71
2023/07/15 21:00:42;;;;;;;3.78;2.47;;;;;;;17.82;100.00;100543.19;10358126;28;20049;-72
2023/07/15 21:05:42;;;;;;;4.38;2.58;;;;;;;17.87;100.00;100562.59;10373950;28;20057;-72
2023/07/15 21:10:43;;;;;;;5.35;2.80;;;;;;;17.86;100.00;100580.44;10341292;28;20049;-72
2023/07/15 21:15:43;;;;;;;3.75;2.53;;;;;;;17.86;100.00;100580.44;10374333;28;20541;-71
2023/07/15 21:20:45;;;;;;;6.05;2.33;;;;;;;17.81;100.00;100580.50;10369440;28;20034;-71
2023/07/15 21:25:46;;;;;;;5.38;2.58;;;;;;;17.69;100.00;100571.84;10357337;28;20037;-71
2023/07/15 21:30:46;;;;;;;4.68;2.30;;;;;;;17.55;100.00;100575.47;10355480;28;20566;-71
2023/07/15 21:35:48;;;;;;;7.30;3.20;;;;;;;17.49;100.00;100570.31;10376089;28;20124;-71
2023/07/15 21:40:50;;;;;;;5.18;2.80;;;;;;;17.11;100.00;100532.31;10390726;28;20041;-72
2023/07/15 21:45:50;;;;;;;4.45;2.33;;;;;;;17.28;100.00;100575.41;10376901;28;20046;-71
2023/07/15 21:50:51;;;;;;;8.50;3.22;;;;;;;17.15;100.00;100572.31;10405823;28;20044;-72
2023/07/15 21:55:54;;;;;;;6.32;3.53;;;;;;;17.05;100.00;100560.53;10401670;28;20056;-70
2023/07/15 22:00:58;;;;;;;8.23;2.58;;;;;;;16.93;100.00;100564.66;10391858;28;20109;-71
2023/07/15 22:05:58;;;;;;;10.07;2.60;;;;;;;16.82;100.00;100568.72;10406567;28;20048;-71
2023/07/15 22:10:59;;;;;;;6.97;2.90;;;;;;;16.75;100.00;100585.75;10392168;28;20393;-71
2023/07/15 22:15:59;;;;;;;6.55;2.78;;;;;;;16.64;100.00;100575.09;10392709;28;20042;-71
2023/07/15 22:21:00;;;;;;;8.10;3.55;;;;;;;16.53;100.00;100582.78;10398161;28;20394;-71
2023/07/15 22:26:00;;;;;;;9.18;2.55;;;;;;;16.46;100.00;100596.25;10347629;28;20421;-71
2023/07/15 22:31:01;;;;;;;8.68;2.95;;;;;;;16.45;100.00;100608.47;10373884;28;20041;-71
2023/07/15 22:36:02;;;;;;;6.65;3.03;;;;;;;16.45;100.00;100614.03;10321328;28;20038;-72
2023/07/15 22:41:02;;;;;;;7.03;2.78;;;;;;;16.44;100.00;100609.59;10312106;28;20046;-71
2023/07/15 22:46:03;;;;;;;5.57;2.20;;;;;;;16.35;100.00;100631.69;10358595;28;20038;-72
2023/07/15 22:51:03;;;;;;;6.00;2.10;;;;;;;16.44;100.00;100637.38;10375975;28;20052;-72